createdAt,value
2023-03-13T00:01:32.174Z,9.38
2023-03-13T00:04:00.201Z,10.10
2023-03-13T00:06:34.806Z,12.18
2023-03-13T00:09:07.883Z,23.25
2023-03-13T00:11:36.645Z,32.42
2023-03-13T00:14:06.907Z,19.52
2023-03-13T00:16:37.734Z,19.05
2023-03-13T00:19:07.609Z,16.63
2023-03-13T00:21:37.876Z,12.00
2023-03-13T00:24:06.017Z,10.80
2023-03-13T00:26:33.944Z,9.13
2023-03-13T00:29:02.132Z,6.63
2023-03-13T00:31:31.876Z,10.68
2023-03-13T00:34:01.887Z,9.93
2023-03-13T00:36:32.570Z,9.70
2023-03-13T00:39:04.493Z,12.55
2023-03-13T00:41:33.612Z,8.27
2023-03-13T00:44:01.635Z,7.82
2023-03-13T00:46:32.196Z,9.63
2023-03-13T00:49:00.524Z,9.55
2023-03-13T00:51:29.293Z,8.88
2023-03-13T00:54:02.136Z,8.65
2023-03-13T00:56:30.371Z,8.70
2023-03-13T00:59:01.134Z,7.13
2023-03-13T01:01:32.292Z,6.22
2023-03-13T01:04:06.888Z,7.55
2023-03-13T01:06:37.327Z,17.40
2023-03-13T01:09:06.798Z,16.67
2023-03-13T01:11:36.866Z,11.55
2023-03-13T01:14:11.139Z,11.15
2023-03-13T01:16:39.768Z,6.15
2023-03-13T01:19:13.378Z,4.88
2023-03-13T01:21:44.580Z,8.23
2023-03-13T01:24:12.777Z,9.13
2023-03-13T01:26:40.681Z,8.98
2023-03-13T01:29:08.655Z,9.20
2023-03-13T01:31:37.551Z,14.27
2023-03-13T01:34:10.661Z,11.32
2023-03-13T01:36:38.845Z,21.58
2023-03-13T01:39:07.131Z,11.27
2023-03-13T01:41:35.185Z,9.63
2023-03-13T01:44:03.207Z,10.50
2023-03-13T01:46:34.552Z,9.88
2023-03-13T01:49:20.006Z,8.32
2023-03-13T01:52:15.049Z,8.05
2023-03-13T01:55:05.281Z,5.32
2023-03-13T01:57:37.817Z,7.18
2023-03-13T02:00:11.986Z,6.55
2023-03-13T02:02:55.720Z,5.30
2023-03-13T02:05:27.214Z,4.70
2023-03-13T02:08:23.478Z,4.70
2023-03-13T02:11:04.387Z,5.82
2023-03-13T02:13:32.604Z,7.95
2023-03-13T02:16:01.592Z,4.15
2023-03-13T02:23:40.600Z,5.10
2023-03-13T02:26:08.626Z,3.67
2023-03-13T02:28:39.667Z,4.43
2023-03-13T02:31:14.286Z,6.20
2023-03-13T02:33:44.960Z,7.53
2023-03-13T02:36:18.067Z,7.85
2023-03-13T02:38:54.036Z,6.82
2023-03-13T02:41:23.737Z,5.78
2023-03-13T02:43:52.164Z,5.40
2023-03-13T02:46:21.436Z,20.48
2023-03-13T02:48:55.911Z,25.13
2023-03-13T02:51:42.293Z,20.13
2023-03-13T02:57:09.092Z,8.73
2023-03-13T02:59:37.428Z,5.85
2023-03-13T03:02:05.603Z,5.13
2023-03-13T03:04:33.741Z,6.53
2023-03-13T03:07:01.763Z,5.38
2023-03-13T03:09:30.224Z,5.38
2023-03-13T03:12:04.456Z,4.63
2023-03-13T03:17:02.431Z,5.82
2023-03-13T03:19:30.538Z,3.42
2023-03-13T03:21:58.451Z,7.57
2023-03-13T03:24:26.650Z,9.52
2023-03-13T03:26:54.656Z,10.20
2023-03-13T03:29:30.144Z,6.75
2023-03-13T03:31:59.692Z,6.18
2023-03-13T03:34:27.838Z,8.18
2023-03-13T03:36:58.352Z,6.47
2023-03-13T03:39:29.188Z,6.60
2023-03-13T03:41:57.368Z,6.07
2023-03-13T03:44:26.374Z,6.35
2023-03-13T03:46:56.583Z,6.50
2023-03-13T03:49:26.945Z,5.75
2023-03-13T03:51:55.088Z,6.68
2023-03-13T03:54:31.871Z,7.03
2023-03-13T03:57:01.119Z,6.45
2023-03-13T03:59:29.284Z,5.60
2023-03-13T04:02:04.684Z,4.57
2023-03-13T04:04:34.072Z,5.15
2023-03-13T04:07:11.791Z,11.38
2023-03-13T04:12:11.645Z,6.50
2023-03-13T04:14:44.151Z,15.35
2023-03-13T04:17:15.040Z,14.50
2023-03-13T04:19:44.880Z,10.20
2023-03-13T04:22:12.836Z,5.97
2023-03-13T04:24:46.524Z,7.93
2023-03-13T04:27:14.521Z,9.32
2023-03-13T04:32:32.056Z,8.27
2023-03-13T04:35:22.296Z,10.90
2023-03-13T04:38:08.939Z,6.00
2023-03-13T04:41:06.361Z,6.15
2023-03-13T04:43:37.488Z,7.88
2023-03-13T04:46:15.953Z,6.65
2023-03-13T04:49:02.990Z,8.10
2023-03-13T04:51:49.408Z,11.85
2023-03-13T04:54:41.632Z,9.52
2023-03-13T04:57:35.477Z,7.43
2023-03-13T05:00:26.755Z,11.20
2023-03-13T05:03:33.400Z,9.73
2023-03-13T05:06:11.554Z,8.20
2023-03-13T05:08:39.707Z,8.18
2023-03-13T05:11:19.776Z,8.13
2023-03-13T05:14:09.308Z,10.00
2023-03-13T05:16:46.268Z,12.20
2023-03-13T05:19:32.575Z,12.48
2023-03-13T05:22:07.619Z,9.05
2023-03-13T05:27:55.237Z,12.68
2023-03-13T05:30:43.850Z,16.33
2023-03-13T05:33:30.644Z,15.27
2023-03-13T05:36:05.384Z,11.60
2023-03-13T05:38:53.855Z,12.80
2023-03-13T05:41:44.724Z,9.77
2023-03-13T05:44:21.920Z,12.15
2023-03-13T05:46:55.922Z,7.20
2023-03-13T05:49:29.492Z,7.95
2023-03-13T05:52:03.534Z,6.43
2023-03-13T05:55:10.477Z,6.72
2023-03-13T05:57:56.898Z,8.93
2023-03-13T06:01:11.493Z,7.63
2023-03-13T06:03:52.833Z,25.65
2023-03-13T06:06:21.786Z,14.95
2023-03-13T06:08:55.393Z,13.02
2023-03-13T06:11:26.685Z,11.70
2023-03-13T06:13:54.869Z,9.73
2023-03-13T06:16:32.440Z,6.93
2023-03-13T06:19:16.008Z,8.18
2023-03-13T06:21:43.939Z,8.43
2023-03-13T06:24:11.879Z,6.07
2023-03-13T06:26:39.731Z,7.20
2023-03-13T06:29:07.833Z,5.75
2023-03-13T06:31:35.815Z,6.50
2023-03-13T06:34:04.494Z,5.68
2023-03-13T06:36:32.496Z,5.22
2023-03-13T06:39:00.393Z,5.82
2023-03-13T06:41:28.405Z,6.10
2023-03-13T06:43:56.304Z,7.68
2023-03-13T06:46:26.254Z,8.00
2023-03-13T06:48:54.231Z,6.75
2023-03-13T06:51:22.946Z,5.65
2023-03-13T06:53:52.635Z,7.05
2023-03-13T06:56:22.003Z,5.32
2023-03-13T06:58:50.474Z,6.90
2023-03-13T07:01:18.980Z,6.63
2023-03-13T07:03:49.138Z,7.50
2023-03-13T07:06:18.712Z,5.95
2023-03-13T07:08:47.254Z,4.38
2023-03-13T07:13:44.040Z,4.53
2023-03-13T07:16:13.773Z,5.78
2023-03-13T07:18:42.252Z,5.25
2023-03-13T07:21:11.602Z,4.78
2023-03-13T07:23:39.960Z,4.70
2023-03-13T07:26:12.400Z,4.55
2023-03-13T07:28:40.548Z,8.40
2023-03-13T07:31:21.284Z,8.00
2023-03-13T07:33:52.655Z,4.50
2023-03-13T07:36:20.763Z,23.20
2023-03-13T07:38:52.894Z,5.93
2023-03-13T07:41:21.301Z,6.25
2023-03-13T07:43:49.573Z,5.82
2023-03-13T07:46:20.313Z,5.40
2023-03-13T07:48:49.170Z,5.70
2023-03-13T07:51:33.442Z,5.18
2023-03-13T07:54:05.708Z,3.83
2023-03-13T07:56:33.623Z,4.00
2023-03-13T07:59:01.676Z,3.83
2023-03-13T08:01:31.189Z,3.05
2023-03-13T08:04:02.829Z,3.10
2023-03-13T08:06:34.259Z,2.33
2023-03-13T08:09:04.534Z,2.97
2023-03-13T08:11:32.664Z,3.10
2023-03-13T08:14:00.719Z,2.65
2023-03-13T08:16:31.297Z,3.83
2023-03-13T08:18:59.730Z,3.15
2023-03-13T08:21:38.586Z,4.90
2023-03-13T08:24:08.891Z,2.97
2023-03-13T08:26:38.931Z,4.75
2023-03-13T08:29:12.162Z,3.40
2023-03-13T08:31:48.864Z,3.58
2023-03-13T08:34:18.024Z,3.25
2023-03-13T08:36:46.476Z,6.03
2023-03-13T08:39:19.530Z,4.68
2023-03-13T08:41:48.342Z,4.00
2023-03-13T08:44:18.996Z,4.70
2023-03-13T08:46:49.568Z,5.78
2023-03-13T08:49:18.139Z,2.00
2023-03-13T08:54:13.921Z,2.65
2023-03-13T08:56:43.785Z,3.28
2023-03-13T08:59:11.729Z,2.33
2023-03-13T09:01:39.582Z,2.90
2023-03-13T09:04:08.462Z,1.90
2023-03-13T09:06:38.557Z,3.13
2023-03-13T09:09:07.964Z,1.50
2023-03-13T09:11:38.135Z,2.08
2023-03-13T09:14:07.690Z,2.78
2023-03-13T09:16:36.192Z,3.05
2023-03-13T09:19:04.812Z,2.17
2023-03-13T09:24:02.609Z,2.40
2023-03-13T09:26:31.084Z,2.35
2023-03-13T09:28:59.492Z,3.10
2023-03-13T09:31:30.749Z,4.05
2023-03-13T09:34:00.434Z,2.45
2023-03-13T09:36:28.982Z,5.10
2023-03-13T09:38:59.634Z,5.88
2023-03-13T09:41:35.233Z,3.00
2023-03-13T09:44:23.036Z,2.33
2023-03-13T09:46:54.055Z,3.13
2023-03-13T09:49:54.672Z,3.38
2023-03-13T09:52:30.335Z,5.35
2023-03-13T09:55:05.648Z,2.85
2023-03-13T09:57:45.421Z,3.40
2023-03-13T10:00:16.869Z,4.00
2023-03-13T10:02:48.108Z,3.33
2023-03-13T10:05:16.014Z,5.53
2023-03-13T10:07:44.231Z,4.00
2023-03-13T10:10:16.795Z,3.28
2023-03-13T10:12:47.541Z,2.30
2023-03-13T10:15:45.372Z,2.03
2023-03-13T10:18:21.856Z,2.10
2023-03-13T10:20:52.831Z,2.90
2023-03-13T10:23:28.215Z,2.65
2023-03-13T10:25:56.458Z,6.38
2023-03-13T10:28:26.280Z,3.13
2023-03-13T10:31:03.060Z,3.38
2023-03-13T10:33:35.400Z,2.00
2023-03-13T10:36:12.474Z,5.50
2023-03-13T10:38:52.438Z,2.38
2023-03-13T10:41:33.574Z,2.65
2023-03-13T10:44:15.532Z,2.28
2023-03-13T10:46:46.653Z,3.55
2023-03-13T10:49:23.644Z,3.08
2023-03-13T10:51:54.655Z,2.95
2023-03-13T10:54:30.736Z,4.55
2023-03-13T10:57:26.847Z,8.38
2023-03-13T10:59:55.694Z,5.72
2023-03-13T11:02:38.749Z,2.45
2023-03-13T11:05:33.908Z,3.22
2023-03-13T11:08:35.040Z,2.85
2023-03-13T11:11:21.176Z,1.90
2023-03-13T11:13:49.498Z,2.92
2023-03-13T11:16:19.430Z,1.98
2023-03-13T11:19:04.798Z,2.03
2023-03-13T11:21:52.948Z,4.60
2023-03-13T11:24:47.018Z,2.25
2023-03-13T11:27:55.214Z,2.10
2023-03-13T11:30:46.429Z,2.72
2023-03-13T11:33:17.580Z,3.03
2023-03-13T11:36:04.408Z,1.95
2023-03-13T11:38:45.713Z,2.80
2023-03-13T11:41:35.495Z,3.78
2023-03-13T11:44:10.082Z,2.92
2023-03-13T11:47:04.696Z,2.55
2023-03-13T11:49:41.787Z,1.98
2023-03-13T11:52:51.610Z,1.85
2023-03-13T11:55:32.700Z,2.90
2023-03-13T11:58:38.634Z,3.05
2023-03-13T12:01:17.698Z,4.10
2023-03-13T12:04:04.117Z,3.63
2023-03-13T12:06:43.823Z,3.28
2023-03-13T12:09:29.328Z,2.05
2023-03-13T12:12:12.384Z,2.10
2023-03-13T12:15:05.918Z,2.45
2023-03-13T12:17:37.977Z,2.00
2023-03-13T12:20:14.049Z,2.60
2023-03-13T12:22:48.689Z,5.38
2023-03-13T12:25:29.913Z,3.50
2023-03-13T12:28:25.015Z,3.25
2023-03-13T12:31:08.171Z,2.92
2023-03-13T12:33:38.829Z,2.30
2023-03-13T12:36:19.268Z,2.30
2023-03-13T12:39:10.239Z,2.60
2023-03-13T12:41:43.988Z,1.92
2023-03-13T12:44:18.679Z,2.80
2023-03-13T12:46:46.663Z,3.03
2023-03-13T12:49:29.754Z,2.20
2023-03-13T12:52:42.397Z,2.67
2023-03-13T12:55:28.671Z,3.20
2023-03-13T12:58:17.646Z,2.85
2023-03-13T13:00:48.154Z,2.28
2023-03-13T13:03:45.299Z,3.53
2023-03-13T13:06:16.106Z,3.08
2023-03-13T13:08:53.019Z,2.50
2023-03-13T13:11:39.411Z,3.17
2023-03-13T13:14:17.498Z,1.75
2023-03-13T13:17:16.450Z,1.75
2023-03-13T13:19:47.047Z,2.00
2023-03-13T13:22:39.890Z,6.97
2023-03-13T13:25:11.087Z,2.42
2023-03-13T13:27:39.141Z,2.85
2023-03-13T13:30:18.961Z,2.72
2023-03-13T13:32:48.106Z,2.40
2023-03-13T13:35:23.082Z,3.30
2023-03-13T13:40:29.085Z,14.48
2023-03-13T13:42:58.295Z,3.95
2023-03-13T13:45:32.384Z,2.10
2023-03-13T13:48:28.097Z,2.92
2023-03-13T13:51:11.633Z,2.00
2023-03-13T13:53:51.109Z,2.08
2023-03-13T13:56:28.786Z,2.30
2023-03-13T13:59:05.937Z,3.05
2023-03-13T14:01:34.631Z,3.25
2023-03-13T14:06:49.107Z,2.33
2023-03-13T14:09:40.435Z,2.30
2023-03-13T14:12:29.057Z,2.70
2023-03-13T14:15:21.359Z,2.70
2023-03-13T14:17:52.595Z,2.80
2023-03-13T14:20:40.596Z,3.75
2023-03-13T14:23:10.856Z,3.80
2023-03-13T14:25:51.550Z,3.55
2023-03-13T14:28:23.205Z,3.65
2023-03-13T14:30:53.895Z,4.25
2023-03-13T14:33:22.273Z,4.28
2023-03-13T14:35:50.478Z,4.07
2023-03-13T14:38:22.711Z,19.17
2023-03-13T14:40:53.101Z,12.05
2023-03-13T14:43:23.907Z,4.85
2023-03-13T14:45:52.514Z,9.18
2023-03-13T14:51:15.549Z,8.63
2023-03-13T14:54:01.823Z,14.68
2023-03-13T14:56:37.378Z,14.32
2023-03-13T14:59:19.824Z,13.93
2023-03-13T15:02:13.428Z,5.97
2023-03-13T15:05:05.374Z,8.13
2023-03-13T15:07:54.901Z,4.00
2023-03-13T15:10:37.048Z,14.85
2023-03-13T15:13:20.349Z,8.07
2023-03-13T15:15:48.496Z,5.07
2023-03-13T15:18:21.218Z,6.85
2023-03-13T15:20:54.225Z,8.05
2023-03-13T15:23:23.214Z,4.60
2023-03-13T15:28:22.586Z,3.50
2023-03-13T15:30:52.754Z,6.95
2023-03-13T15:33:23.457Z,7.53
2023-03-13T15:35:51.751Z,4.55
2023-03-13T15:38:22.843Z,13.32
2023-03-13T15:40:51.298Z,48.28
2023-03-13T15:43:21.074Z,114.47
2023-03-13T15:45:54.039Z,47.08
2023-03-13T15:48:25.091Z,6.55
2023-03-13T15:51:01.989Z,12.60
2023-03-13T15:53:32.499Z,46.45
2023-03-13T15:56:02.722Z,33.20
2023-03-13T15:58:31.001Z,23.02
2023-03-13T16:00:59.555Z,16.67
2023-03-13T16:03:29.356Z,8.75
2023-03-13T16:05:58.094Z,10.95
2023-03-13T16:08:39.689Z,17.55
2023-03-13T16:11:10.191Z,16.48
2023-03-13T16:13:38.763Z,19.00
2023-03-13T16:16:24.841Z,13.57
2023-03-13T16:18:53.409Z,38.17
2023-03-13T16:21:27.890Z,31.15
2023-03-13T16:23:56.617Z,11.18
2023-03-13T16:26:27.155Z,18.80
2023-03-13T16:28:55.902Z,38.97
2023-03-13T16:33:54.367Z,26.17
2023-03-13T16:36:25.475Z,22.30
2023-03-13T16:38:55.121Z,25.02
2023-03-13T16:41:25.257Z,38.22
2023-03-13T16:43:55.067Z,26.45
2023-03-13T16:46:35.348Z,18.15
2023-03-13T16:49:04.440Z,16.70
2023-03-13T16:51:32.758Z,6.78
2023-03-13T16:54:01.367Z,5.85
2023-03-13T16:56:31.542Z,4.90
2023-03-13T16:59:01.613Z,15.02
2023-03-13T17:01:30.844Z,12.07
2023-03-13T17:06:30.617Z,11.25
2023-03-13T17:08:59.640Z,11.57
2023-03-13T17:11:28.102Z,11.15
2023-03-13T17:13:56.447Z,7.95
2023-03-13T17:16:33.403Z,7.70
2023-03-13T17:19:03.604Z,11.30
2023-03-13T17:21:35.386Z,12.55
2023-03-13T17:24:04.413Z,13.50
2023-03-13T17:26:38.667Z,13.70
2023-03-13T17:29:08.340Z,11.73
2023-03-13T17:31:40.226Z,14.65
2023-03-13T17:34:09.865Z,17.02
2023-03-13T17:36:38.250Z,16.83
2023-03-13T17:39:09.165Z,23.15
2023-03-13T17:41:37.737Z,19.27
2023-03-13T17:44:07.536Z,17.95
2023-03-13T17:46:43.061Z,21.05
2023-03-13T17:49:13.471Z,29.65
2023-03-13T17:51:44.897Z,16.17
2023-03-13T17:54:15.630Z,11.45
2023-03-13T17:56:45.798Z,8.35
2023-03-13T17:59:19.594Z,6.85
2023-03-13T18:01:48.357Z,5.95
2023-03-13T18:04:16.787Z,8.07
2023-03-13T18:06:47.543Z,6.13
2023-03-13T18:09:18.844Z,5.53
2023-03-13T18:11:48.369Z,6.68
2023-03-13T18:14:19.356Z,6.03
2023-03-13T18:16:50.742Z,6.68
2023-03-13T18:19:22.609Z,6.35
2023-03-13T18:21:54.251Z,5.85
2023-03-13T18:24:23.498Z,5.68
2023-03-13T18:26:51.850Z,6.60
2023-03-13T18:29:27.521Z,10.10
2023-03-13T18:31:59.108Z,6.55
2023-03-13T18:34:28.460Z,7.68
2023-03-13T18:36:57.473Z,4.30
2023-03-13T18:39:26.532Z,7.13
2023-03-13T18:41:55.201Z,8.35
2023-03-13T18:44:23.891Z,7.47
2023-03-13T18:46:53.190Z,7.43
2023-03-13T18:49:25.200Z,8.70
2023-03-13T18:51:56.857Z,11.63
2023-03-13T18:54:25.637Z,13.18
2023-03-13T18:56:53.968Z,11.68
2023-03-13T18:59:23.524Z,19.90
2023-03-13T19:01:52.570Z,6.85
2023-03-13T19:04:21.280Z,7.57
2023-03-13T19:06:50.010Z,5.13
2023-03-13T19:09:42.333Z,11.77
2023-03-13T19:12:12.584Z,6.32
2023-03-13T19:14:41.122Z,9.15
2023-03-13T19:17:21.437Z,8.48
2023-03-13T19:19:49.786Z,9.65
2023-03-13T19:22:18.149Z,14.00
2023-03-13T19:24:46.636Z,37.83
2023-03-13T19:27:15.397Z,30.90
2023-03-13T19:29:44.948Z,26.13
2023-03-13T19:32:18.183Z,17.55
2023-03-13T19:34:47.389Z,17.95
2023-03-13T19:37:16.740Z,10.13
2023-03-13T19:39:45.653Z,20.15
2023-03-13T19:42:13.902Z,19.48
2023-03-13T19:44:42.542Z,20.52
2023-03-13T19:47:15.101Z,23.13
2023-03-13T19:49:43.637Z,8.00
2023-03-13T19:52:11.959Z,7.57
2023-03-13T19:54:40.555Z,23.98
2023-03-13T19:57:11.799Z,13.40
2023-03-13T19:59:40.602Z,12.15
2023-03-13T20:02:11.580Z,14.60
2023-03-13T20:04:46.106Z,15.65
2023-03-13T20:07:14.783Z,10.32
2023-03-13T20:09:42.856Z,10.85
2023-03-13T20:12:11.177Z,13.82
2023-03-13T20:14:39.817Z,13.52
2023-03-13T20:17:08.345Z,10.45
2023-03-13T20:19:36.641Z,9.90
2023-03-13T20:22:05.688Z,14.88
2023-03-13T20:24:34.181Z,8.02
2023-03-13T20:27:03.766Z,7.90
2023-03-13T20:29:33.549Z,12.82
2023-03-13T20:32:04.926Z,21.10
2023-03-13T20:34:34.264Z,28.30
2023-03-13T20:37:04.461Z,17.50
2023-03-13T20:39:35.730Z,36.55
2023-03-13T20:42:06.984Z,17.05
2023-03-13T20:44:35.359Z,15.05
2023-03-13T20:47:03.368Z,11.77
2023-03-13T20:49:31.699Z,17.45
2023-03-13T20:52:00.109Z,11.77
2023-03-13T20:54:28.695Z,20.30
2023-03-13T20:56:58.459Z,19.15
2023-03-13T20:59:27.376Z,7.35
2023-03-13T21:01:55.850Z,8.68
2023-03-13T21:04:24.398Z,4.88
2023-03-13T21:06:52.831Z,4.22
2023-03-13T21:09:21.847Z,9.15
2023-03-13T21:11:49.917Z,14.48
2023-03-13T21:14:17.811Z,12.63
2023-03-13T21:16:46.173Z,13.73
2023-03-13T21:19:14.510Z,10.73
2023-03-13T21:21:42.641Z,8.35
2023-03-13T21:24:11.146Z,8.35
2023-03-13T21:26:39.442Z,8.27
2023-03-13T21:29:09.525Z,7.30
2023-03-13T21:31:39.316Z,6.63
2023-03-13T21:34:10.928Z,6.93
2023-03-13T21:36:38.956Z,8.80
2023-03-13T21:39:08.390Z,5.32
2023-03-13T21:41:36.641Z,4.50
2023-03-13T21:44:04.487Z,6.65
2023-03-13T21:46:35.904Z,4.65
2023-03-13T21:49:04.041Z,6.75
2023-03-13T21:51:31.937Z,5.78
2023-03-13T21:53:59.975Z,9.85
2023-03-13T21:56:27.959Z,14.73
2023-03-13T21:58:56.471Z,13.57
2023-03-13T22:01:24.374Z,17.48
2023-03-13T22:03:52.439Z,14.73
2023-03-13T22:06:21.194Z,22.58
2023-03-13T22:08:50.246Z,8.98
2023-03-13T22:11:18.894Z,15.05
2023-03-13T22:13:46.809Z,15.57
2023-03-13T22:16:14.773Z,10.55
2023-03-13T22:18:43.392Z,11.75
2023-03-13T22:21:11.393Z,6.00
2023-03-13T22:23:39.724Z,4.68
2023-03-13T22:26:07.667Z,5.93
2023-03-13T22:28:36.003Z,6.43
2023-03-13T22:31:05.800Z,7.50
2023-03-13T22:33:35.249Z,11.10
2023-03-13T22:38:31.816Z,11.25
2023-03-13T22:41:01.720Z,10.57
2023-03-13T22:43:30.390Z,10.00
2023-03-13T22:45:59.239Z,9.07
2023-03-13T22:48:27.597Z,8.93
2023-03-13T22:51:03.848Z,8.77
2023-03-13T22:53:33.015Z,14.98
2023-03-13T22:56:01.082Z,10.32
2023-03-13T22:58:29.067Z,7.45
2023-03-13T23:00:57.114Z,6.75
2023-03-13T23:03:25.143Z,7.93
2023-03-13T23:05:53.027Z,7.43
2023-03-13T23:08:21.083Z,8.65
2023-03-13T23:10:48.981Z,8.65
2023-03-13T23:13:18.320Z,7.57
2023-03-13T23:16:01.232Z,6.85
2023-03-13T23:18:29.606Z,9.23
2023-03-13T23:20:57.594Z,10.55
2023-03-13T23:23:25.505Z,10.10
2023-03-13T23:25:53.392Z,8.35
2023-03-13T23:28:21.418Z,9.80
2023-03-13T23:30:49.368Z,9.52
2023-03-13T23:33:17.197Z,16.38
2023-03-13T23:35:46.049Z,18.05
2023-03-13T23:38:14.674Z,8.27
2023-03-13T23:40:42.601Z,6.80
2023-03-13T23:43:10.442Z,12.13
2023-03-13T23:45:38.288Z,15.85
2023-03-13T23:48:06.509Z,38.15
2023-03-13T23:50:34.370Z,22.00
2023-03-13T23:53:02.279Z,8.52
2023-03-13T23:55:30.181Z,9.50
2023-03-13T23:57:58.045Z,11.55
